sensor_id;sensor_type;location;lat;lon;timestamp;P1;durP1;ratioP1;P2;durP2;ratioP2
62457;SDS011;48509;52.122;5.250;2022-07-24T00:01:24;9.1;;;5.9;;
62457;SDS011;48509;52.122;5.250;2022-07-24T00:04:57;8.5;;;6.8;;
62457;SDS011;48509;52.122;5.250;2022-07-24T00:06:46;11.0;;;7.3;;
62457;SDS011;48509;52.122;5.250;2022-07-24T00:08:33;9.4;;;6.5;;
62457;SDS011;48509;52.122;5.250;2022-07-24T00:10:20;7.4;;;6.2;;
62457;SDS011;48509;52.122;5.250;2022-07-24T00:12:07;10.9;;;6.6;;
62457;SDS011;48509;52.122;5.250;2022-07-24T00:13:55;11.4;;;7.2;;
62457;SDS011;48509;52.122;5.250;2022-07-24T00:17:29;7.6;;;6.5;;
62457;SDS011;48509;52.122;5.250;2022-07-24T00:19:16;7.9;;;6.9;;
62457;SDS011;48509;52.122;5.250;2022-07-24T00:21:03;7.3;;;6.5;;
62457;SDS011;48509;52.122;5.250;2022-07-24T00:22:51;9.71;;;6.6;;
62457;SDS011;48509;52.122;5.250;2022-07-24T00:24:38;9.4;;;6.7;;
62457;SDS011;48509;52.122;5.250;2022-07-24T00:26:25;8.71;;;6.5;;
62457;SDS011;48509;52.122;5.250;2022-07-24T00:29:59;8.9;;;6.2;;
62457;SDS011;48509;52.122;5.250;2022-07-24T00:31:46;8.2;;;6.1;;
62457;SDS011;48509;52.122;5.250;2022-07-24T00:33:34;9.21;;;7.2;;
62457;SDS011;48509;52.122;5.250;2022-07-24T00:35:21;7.2;;;6.0;;
62457;SDS011;48509;52.122;5.250;2022-07-24T00:37:07;11.2;;;7.5;;
62457;SDS011;48509;52.122;5.250;2022-07-24T00:38:54;9.1;;;6.1;;
62457;SDS011;48509;52.122;5.250;2022-07-24T00:42:28;8.1;;;6.7;;
62457;SDS011;48509;52.122;5.250;2022-07-24T00:44:15;9.9;;;7.5;;
62457;SDS011;48509;52.122;5.250;2022-07-24T00:46:02;8.9;;;7.4;;
62457;SDS011;48509;52.122;5.250;2022-07-24T00:47:49;7.8;;;7.0;;
62457;SDS011;48509;52.122;5.250;2022-07-24T00:49:36;9.81;;;7.2;;
62457;SDS011;48509;52.122;5.250;2022-07-24T00:51:22;8.2;;;6.4;;
62457;SDS011;48509;52.122;5.250;2022-07-24T00:54:57;9.0;;;7.2;;
62457;SDS011;48509;52.122;5.250;2022-07-24T00:56:45;7.9;;;6.3;;
62457;SDS011;48509;52.122;5.250;2022-07-24T00:58:35;8.5;;;6.8;;
62457;SDS011;48509;52.122;5.250;2022-07-24T01:00:22;8.6;;;6.8;;
62457;SDS011;48509;52.122;5.250;2022-07-24T01:02:11;9.6;;;7.3;;
62457;SDS011;48509;52.122;5.250;2022-07-24T01:03:59;8.81;;;6.9;;
62457;SDS011;48509;52.122;5.250;2022-07-24T01:07:32;11.4;;;8.0;;
62457;SDS011;48509;52.122;5.250;2022-07-24T01:09:19;9.0;;;7.5;;
62457;SDS011;48509;52.122;5.250;2022-07-24T01:11:06;9.5;;;7.8;;
62457;SDS011;48509;52.122;5.250;2022-07-24T01:12:53;9.5;;;7.8;;
62457;SDS011;48509;52.122;5.250;2022-07-24T01:14:42;10.21;;;7.3;;
62457;SDS011;48509;52.122;5.250;2022-07-24T01:16:29;11.0;;;8.1;;
62457;SDS011;48509;52.122;5.250;2022-07-24T01:20:04;10.5;;;7.9;;
62457;SDS011;48509;52.122;5.250;2022-07-24T01:21:53;8.81;;;7.5;;
62457;SDS011;48509;52.122;5.250;2022-07-24T01:23:40;10.4;;;7.4;;
62457;SDS011;48509;52.122;5.250;2022-07-24T01:25:27;9.21;;;8.2;;
62457;SDS011;48509;52.122;5.250;2022-07-24T01:27:14;10.1;;;7.2;;
62457;SDS011;48509;52.122;5.250;2022-07-24T01:29:01;13.0;;;7.6;;
62457;SDS011;48509;52.122;5.250;2022-07-24T01:32:36;9.6;;;7.4;;
62457;SDS011;48509;52.122;5.250;2022-07-24T01:34:24;16.2;;;8.31;;
62457;SDS011;48509;52.122;5.250;2022-07-24T01:36:11;12.9;;;8.4;;
62457;SDS011;48509;52.122;5.250;2022-07-24T01:37:58;10.6;;;9.1;;
62457;SDS011;48509;52.122;5.250;2022-07-24T01:39:45;15.7;;;9.81;;
62457;SDS011;48509;52.122;5.250;2022-07-24T01:43:19;11.5;;;8.81;;
62457;SDS011;48509;52.122;5.250;2022-07-24T01:46:53;12.5;;;10.3;;
62457;SDS011;48509;52.122;5.250;2022-07-24T01:48:39;13.3;;;11.1;;
62457;SDS011;48509;52.122;5.250;2022-07-24T01:50:28;15.8;;;11.2;;
62457;SDS011;48509;52.122;5.250;2022-07-24T01:52:15;12.2;;;10.5;;
62457;SDS011;48509;52.122;5.250;2022-07-24T01:55:50;14.1;;;10.8;;
62457;SDS011;48509;52.122;5.250;2022-07-24T01:57:38;11.3;;;9.71;;
62457;SDS011;48509;52.122;5.250;2022-07-24T01:59:25;10.8;;;9.1;;
62457;SDS011;48509;52.122;5.250;2022-07-24T02:01:12;11.9;;;9.6;;
62457;SDS011;48509;52.122;5.250;2022-07-24T02:02:59;12.4;;;10.4;;
62457;SDS011;48509;52.122;5.250;2022-07-24T02:04:46;15.8;;;10.0;;
62457;SDS011;48509;52.122;5.250;2022-07-24T02:08:20;14.3;;;10.9;;
62457;SDS011;48509;52.122;5.250;2022-07-24T02:10:08;11.6;;;9.71;;
62457;SDS011;48509;52.122;5.250;2022-07-24T02:11:58;13.2;;;9.21;;
62457;SDS011;48509;52.122;5.250;2022-07-24T02:13:45;12.4;;;9.6;;
62457;SDS011;48509;52.122;5.250;2022-07-24T02:15:33;12.3;;;10.21;;
62457;SDS011;48509;52.122;5.250;2022-07-24T02:17:20;12.4;;;9.4;;
62457;SDS011;48509;52.122;5.250;2022-07-24T02:20:54;11.1;;;10.0;;
62457;SDS011;48509;52.122;5.250;2022-07-24T02:22:41;11.6;;;9.81;;
62457;SDS011;48509;52.122;5.250;2022-07-24T02:24:28;13.2;;;9.81;;
62457;SDS011;48509;52.122;5.250;2022-07-24T02:26:16;11.0;;;9.71;;
62457;SDS011;48509;52.122;5.250;2022-07-24T02:28:03;13.2;;;10.5;;
62457;SDS011;48509;52.122;5.250;2022-07-24T02:29:50;12.5;;;10.4;;
62457;SDS011;48509;52.122;5.250;2022-07-24T02:33:23;11.5;;;9.81;;
62457;SDS011;48509;52.122;5.250;2022-07-24T02:35:09;14.5;;;10.5;;
62457;SDS011;48509;52.122;5.250;2022-07-24T02:36:57;12.6;;;10.3;;
62457;SDS011;48509;52.122;5.250;2022-07-24T02:38:45;13.0;;;10.4;;
62457;SDS011;48509;52.122;5.250;2022-07-24T02:40:31;15.8;;;10.7;;
62457;SDS011;48509;52.122;5.250;2022-07-24T02:42:18;14.2;;;10.6;;
62457;SDS011;48509;52.122;5.250;2022-07-24T02:45:51;12.0;;;10.0;;
62457;SDS011;48509;52.122;5.250;2022-07-24T02:47:45;14.2;;;10.6;;
62457;SDS011;48509;52.122;5.250;2022-07-24T02:49:34;12.2;;;10.9;;
62457;SDS011;48509;52.122;5.250;2022-07-24T02:51:22;15.2;;;12.2;;
62457;SDS011;48509;52.122;5.250;2022-07-24T02:53:09;14.3;;;11.5;;
62457;SDS011;48509;52.122;5.250;2022-07-24T02:54:55;14.8;;;11.4;;
62457;SDS011;48509;52.122;5.250;2022-07-24T02:58:29;12.7;;;11.0;;
62457;SDS011;48509;52.122;5.250;2022-07-24T03:00:16;13.1;;;11.6;;
62457;SDS011;48509;52.122;5.250;2022-07-24T03:02:04;15.2;;;12.7;;
62457;SDS011;48509;52.122;5.250;2022-07-24T03:03:51;20.11;;;14.4;;
62457;SDS011;48509;52.122;5.250;2022-07-24T03:05:38;14.4;;;12.5;;
62457;SDS011;48509;52.122;5.250;2022-07-24T03:07:25;16.61;;;12.5;;
62457;SDS011;48509;52.122;5.250;2022-07-24T03:10:59;15.0;;;11.1;;
62457;SDS011;48509;52.122;5.250;2022-07-24T03:12:46;13.9;;;11.6;;
62457;SDS011;48509;52.122;5.250;2022-07-24T03:14:33;17.61;;;14.3;;
62457;SDS011;48509;52.122;5.250;2022-07-24T03:16:20;19.0;;;14.8;;
62457;SDS011;48509;52.122;5.250;2022-07-24T03:18:07;19.2;;;15.0;;
62457;SDS011;48509;52.122;5.250;2022-07-24T03:21:40;18.91;;;13.9;;
62457;SDS011;48509;52.122;5.250;2022-07-24T03:23:27;17.5;;;13.8;;
62457;SDS011;48509;52.122;5.250;2022-07-24T03:25:15;15.9;;;14.2;;
62457;SDS011;48509;52.122;5.250;2022-07-24T03:27:02;17.0;;;13.7;;
62457;SDS011;48509;52.122;5.250;2022-07-24T03:28:49;16.4;;;13.7;;
62457;SDS011;48509;52.122;5.250;2022-07-24T03:30:36;17.61;;;15.2;;
62457;SDS011;48509;52.122;5.250;2022-07-24T03:34:09;18.7;;;14.0;;
62457;SDS011;48509;52.122;5.250;2022-07-24T03:35:56;20.8;;;17.5;;
62457;SDS011;48509;52.122;5.250;2022-07-24T03:37:44;23.5;;;17.11;;
62457;SDS011;48509;52.122;5.250;2022-07-24T03:39:31;18.91;;;14.4;;
62457;SDS011;48509;52.122;5.250;2022-07-24T03:41:18;22.0;;;15.4;;
62457;SDS011;48509;52.122;5.250;2022-07-24T03:43:05;16.9;;;12.7;;
62457;SDS011;48509;52.122;5.250;2022-07-24T03:46:41;19.91;;;15.7;;
62457;SDS011;48509;52.122;5.250;2022-07-24T03:48:29;22.6;;;15.9;;
62457;SDS011;48509;52.122;5.250;2022-07-24T03:50:16;17.5;;;14.7;;
62457;SDS011;48509;52.122;5.250;2022-07-24T03:52:02;21.3;;;15.3;;
62457;SDS011;48509;52.122;5.250;2022-07-24T03:53:49;18.5;;;16.11;;
62457;SDS011;48509;52.122;5.250;2022-07-24T03:55:37;23.3;;;18.61;;
62457;SDS011;48509;52.122;5.250;2022-07-24T03:59:10;24.5;;;17.11;;
62457;SDS011;48509;52.122;5.250;2022-07-24T04:00:58;18.8;;;16.4;;
62457;SDS011;48509;52.122;5.250;2022-07-24T04:02:45;23.0;;;15.8;;
62457;SDS011;48509;52.122;5.250;2022-07-24T04:04:32;27.4;;;17.41;;
62457;SDS011;48509;52.122;5.250;2022-07-24T04:06:18;23.8;;;18.2;;
62457;SDS011;48509;52.122;5.250;2022-07-24T04:08:05;23.9;;;18.2;;
62457;SDS011;48509;52.122;5.250;2022-07-24T04:11:39;18.0;;;16.11;;
62457;SDS011;48509;52.122;5.250;2022-07-24T04:13:27;20.7;;;15.7;;
62457;SDS011;48509;52.122;5.250;2022-07-24T04:15:16;21.5;;;16.8;;
62457;SDS011;48509;52.122;5.250;2022-07-24T04:17:03;18.41;;;14.9;;
62457;SDS011;48509;52.122;5.250;2022-07-24T04:18:49;24.1;;;16.9;;
62457;SDS011;48509;52.122;5.250;2022-07-24T04:20:36;25.4;;;19.8;;
62457;SDS011;48509;52.122;5.250;2022-07-24T04:24:09;22.0;;;17.5;;
62457;SDS011;48509;52.122;5.250;2022-07-24T04:25:56;20.9;;;17.11;;
62457;SDS011;48509;52.122;5.250;2022-07-24T04:27:43;22.8;;;16.9;;
62457;SDS011;48509;52.122;5.250;2022-07-24T04:29:30;24.8;;;19.11;;
62457;SDS011;48509;52.122;5.250;2022-07-24T04:31:17;22.4;;;18.41;;
62457;SDS011;48509;52.122;5.250;2022-07-24T04:34:51;24.4;;;19.61;;
62457;SDS011;48509;52.122;5.250;2022-07-24T04:36:38;20.9;;;18.0;;
62457;SDS011;48509;52.122;5.250;2022-07-24T04:38:24;27.5;;;19.8;;
62457;SDS011;48509;52.122;5.250;2022-07-24T04:40:11;26.8;;;20.5;;
62457;SDS011;48509;52.122;5.250;2022-07-24T04:41:59;32.4;;;24.2;;
62457;SDS011;48509;52.122;5.250;2022-07-24T04:43:46;24.6;;;20.41;;
62457;SDS011;48509;52.122;5.250;2022-07-24T04:47:20;24.3;;;18.2;;
62457;SDS011;48509;52.122;5.250;2022-07-24T04:49:08;23.0;;;17.5;;
62457;SDS011;48509;52.122;5.250;2022-07-24T04:50:55;27.2;;;20.11;;
62457;SDS011;48509;52.122;5.250;2022-07-24T04:52:42;27.2;;;20.41;;
62457;SDS011;48509;52.122;5.250;2022-07-24T04:54:29;28.4;;;21.4;;
62457;SDS011;48509;52.122;5.250;2022-07-24T04:56:16;25.8;;;20.0;;
62457;SDS011;48509;52.122;5.250;2022-07-24T04:59:49;28.8;;;22.8;;
62457;SDS011;48509;52.122;5.250;2022-07-24T05:01:37;26.7;;;21.5;;
62457;SDS011;48509;52.122;5.250;2022-07-24T05:03:24;30.5;;;22.2;;
62457;SDS011;48509;52.122;5.250;2022-07-24T05:05:10;34.9;;;24.7;;
62457;SDS011;48509;52.122;5.250;2022-07-24T05:06:57;31.3;;;23.9;;
62457;SDS011;48509;52.122;5.250;2022-07-24T05:08:44;28.2;;;21.8;;
62457;SDS011;48509;52.122;5.250;2022-07-24T05:12:18;27.0;;;21.2;;
62457;SDS011;48509;52.122;5.250;2022-07-24T05:14:05;27.0;;;20.9;;
62457;SDS011;48509;52.122;5.250;2022-07-24T05:15:52;30.3;;;22.9;;
62457;SDS011;48509;52.122;5.250;2022-07-24T05:17:39;28.7;;;22.3;;
62457;SDS011;48509;52.122;5.250;2022-07-24T05:19:26;26.6;;;22.5;;
62457;SDS011;48509;52.122;5.250;2022-07-24T05:23:00;29.9;;;23.0;;
62457;SDS011;48509;52.122;5.250;2022-07-24T05:24:48;26.3;;;21.9;;
62457;SDS011;48509;52.122;5.250;2022-07-24T05:26:34;26.7;;;20.3;;
62457;SDS011;48509;52.122;5.250;2022-07-24T05:28:21;33.21;;;21.9;;
62457;SDS011;48509;52.122;5.250;2022-07-24T05:30:09;24.3;;;20.11;;
62457;SDS011;48509;52.122;5.250;2022-07-24T05:31:56;29.4;;;21.6;;
62457;SDS011;48509;52.122;5.250;2022-07-24T05:35:30;26.5;;;21.4;;
62457;SDS011;48509;52.122;5.250;2022-07-24T05:37:17;24.1;;;19.11;;
62457;SDS011;48509;52.122;5.250;2022-07-24T05:39:04;24.0;;;19.3;;
62457;SDS011;48509;52.122;5.250;2022-07-24T05:40:51;23.6;;;18.3;;
62457;SDS011;48509;52.122;5.250;2022-07-24T05:42:38;23.6;;;17.91;;
62457;SDS011;48509;52.122;5.250;2022-07-24T05:44:25;21.5;;;17.2;;
62457;SDS011;48509;52.122;5.250;2022-07-24T05:48:01;26.4;;;19.41;;
62457;SDS011;48509;52.122;5.250;2022-07-24T05:49:48;28.9;;;20.0;;
62457;SDS011;48509;52.122;5.250;2022-07-24T05:51:35;24.9;;;20.2;;
62457;SDS011;48509;52.122;5.250;2022-07-24T05:53:21;25.0;;;17.41;;
62457;SDS011;48509;52.122;5.250;2022-07-24T05:55:08;22.6;;;17.7;;
62457;SDS011;48509;52.122;5.250;2022-07-24T05:56:56;23.0;;;18.3;;
62457;SDS011;48509;52.122;5.250;2022-07-24T06:00:31;30.0;;;19.3;;
62457;SDS011;48509;52.122;5.250;2022-07-24T06:02:18;23.1;;;16.9;;
62457;SDS011;48509;52.122;5.250;2022-07-24T06:04:05;18.7;;;13.9;;
62457;SDS011;48509;52.122;5.250;2022-07-24T06:05:52;22.5;;;14.8;;
62457;SDS011;48509;52.122;5.250;2022-07-24T06:07:39;21.0;;;15.2;;
62457;SDS011;48509;52.122;5.250;2022-07-24T06:09:27;16.8;;;12.2;;
62457;SDS011;48509;52.122;5.250;2022-07-24T06:13:02;16.8;;;13.3;;
62457;SDS011;48509;52.122;5.250;2022-07-24T06:14:50;21.6;;;14.6;;
62457;SDS011;48509;52.122;5.250;2022-07-24T06:16:37;18.61;;;11.7;;
62457;SDS011;48509;52.122;5.250;2022-07-24T06:18:24;17.91;;;11.7;;
62457;SDS011;48509;52.122;5.250;2022-07-24T06:20:12;18.41;;;11.9;;
62457;SDS011;48509;52.122;5.250;2022-07-24T06:21:59;14.6;;;11.2;;
62457;SDS011;48509;52.122;5.250;2022-07-24T06:25:33;17.8;;;12.1;;
62457;SDS011;48509;52.122;5.250;2022-07-24T06:27:20;13.0;;;10.0;;
62457;SDS011;48509;52.122;5.250;2022-07-24T06:29:06;17.91;;;9.31;;
62457;SDS011;48509;52.122;5.250;2022-07-24T06:30:54;10.9;;;8.6;;
62457;SDS011;48509;52.122;5.250;2022-07-24T06:32:41;13.4;;;9.31;;
62457;SDS011;48509;52.122;5.250;2022-07-24T06:34:28;12.5;;;7.9;;
62457;SDS011;48509;52.122;5.250;2022-07-24T06:38:00;12.0;;;7.7;;
62457;SDS011;48509;52.122;5.250;2022-07-24T06:39:47;8.6;;;6.9;;
62457;SDS011;48509;52.122;5.250;2022-07-24T06:41:34;11.2;;;8.0;;
62457;SDS011;48509;52.122;5.250;2022-07-24T06:43:22;12.0;;;7.5;;
62457;SDS011;48509;52.122;5.250;2022-07-24T06:45:08;9.0;;;6.7;;
62457;SDS011;48509;52.122;5.250;2022-07-24T06:48:43;15.2;;;7.4;;
62457;SDS011;48509;52.122;5.250;2022-07-24T06:50:29;9.81;;;6.7;;
62457;SDS011;48509;52.122;5.250;2022-07-24T06:52:16;9.31;;;6.3;;
62457;SDS011;48509;52.122;5.250;2022-07-24T06:54:04;8.6;;;5.6;;
62457;SDS011;48509;52.122;5.250;2022-07-24T06:55:53;9.5;;;6.2;;
62457;SDS011;48509;52.122;5.250;2022-07-24T06:57:40;9.81;;;5.7;;
62457;SDS011;48509;52.122;5.250;2022-07-24T07:01:13;7.8;;;4.8;;
62457;SDS011;48509;52.122;5.250;2022-07-24T07:03:01;9.71;;;6.0;;
62457;SDS011;48509;52.122;5.250;2022-07-24T07:04:47;8.2;;;6.2;;
62457;SDS011;48509;52.122;5.250;2022-07-24T07:06:35;6.9;;;5.9;;
62457;SDS011;48509;52.122;5.250;2022-07-24T07:08:21;9.5;;;5.5;;
62457;SDS011;48509;52.122;5.250;2022-07-24T07:10:08;7.7;;;5.6;;
62457;SDS011;48509;52.122;5.250;2022-07-24T07:13:42;10.7;;;5.6;;
62457;SDS011;48509;52.122;5.250;2022-07-24T07:15:29;8.71;;;5.4;;
62457;SDS011;48509;52.122;5.250;2022-07-24T07:17:17;8.81;;;4.91;;
62457;SDS011;48509;52.122;5.250;2022-07-24T07:19:05;6.7;;;4.61;;
62457;SDS011;48509;52.122;5.250;2022-07-24T07:20:53;7.9;;;5.0;;
62457;SDS011;48509;52.122;5.250;2022-07-24T07:22:40;8.71;;;4.91;;
62457;SDS011;48509;52.122;5.250;2022-07-24T07:26:14;5.3;;;4.61;;
62457;SDS011;48509;52.122;5.250;2022-07-24T07:28:00;6.2;;;4.61;;
62457;SDS011;48509;52.122;5.250;2022-07-24T07:29:46;8.9;;;4.7;;
62457;SDS011;48509;52.122;5.250;2022-07-24T07:31:33;6.2;;;4.3;;
62457;SDS011;48509;52.122;5.250;2022-07-24T07:33:20;7.0;;;4.5;;
62457;SDS011;48509;52.122;5.250;2022-07-24T07:35:07;13.1;;;5.2;;
62457;SDS011;48509;52.122;5.250;2022-07-24T07:38:40;9.1;;;5.0;;
62457;SDS011;48509;52.122;5.250;2022-07-24T07:40:27;8.0;;;5.2;;
62457;SDS011;48509;52.122;5.250;2022-07-24T07:42:14;6.8;;;4.91;;
62457;SDS011;48509;52.122;5.250;2022-07-24T07:44:01;6.5;;;4.61;;
62457;SDS011;48509;52.122;5.250;2022-07-24T07:45:49;6.7;;;5.3;;
62457;SDS011;48509;52.122;5.250;2022-07-24T07:49:23;6.3;;;5.11;;
62457;SDS011;48509;52.122;5.250;2022-07-24T07:51:11;6.9;;;5.0;;
62457;SDS011;48509;52.122;5.250;2022-07-24T07:52:58;6.8;;;4.7;;
62457;SDS011;48509;52.122;5.250;2022-07-24T07:54:45;7.8;;;4.61;;
62457;SDS011;48509;52.122;5.250;2022-07-24T07:56:32;8.1;;;4.5;;
62457;SDS011;48509;52.122;5.250;2022-07-24T07:58:19;9.5;;;4.3;;
62457;SDS011;48509;52.122;5.250;2022-07-24T08:01:54;4.41;;;4.0;;
62457;SDS011;48509;52.122;5.250;2022-07-24T08:03:42;8.31;;;4.5;;
62457;SDS011;48509;52.122;5.250;2022-07-24T08:05:29;6.8;;;4.5;;
62457;SDS011;48509;52.122;5.250;2022-07-24T08:07:16;7.2;;;4.2;;
62457;SDS011;48509;52.122;5.250;2022-07-24T08:09:03;4.5;;;4.0;;
62457;SDS011;48509;52.122;5.250;2022-07-24T08:10:49;6.6;;;4.8;;
62457;SDS011;48509;52.122;5.250;2022-07-24T08:14:24;8.31;;;4.41;;
62457;SDS011;48509;52.122;5.250;2022-07-24T08:16:11;8.1;;;3.9;;
62457;SDS011;48509;52.122;5.250;2022-07-24T08:17:58;5.8;;;3.6;;
62457;SDS011;48509;52.122;5.250;2022-07-24T08:19:45;5.3;;;3.3;;
62457;SDS011;48509;52.122;5.250;2022-07-24T08:21:32;4.5;;;3.5;;
62457;SDS011;48509;52.122;5.250;2022-07-24T08:23:20;4.8;;;3.0;;
62457;SDS011;48509;52.122;5.250;2022-07-24T08:26:53;4.3;;;3.9;;
62457;SDS011;48509;52.122;5.250;2022-07-24T08:28:40;4.7;;;3.6;;
62457;SDS011;48509;52.122;5.250;2022-07-24T08:30:27;5.11;;;3.8;;
62457;SDS011;48509;52.122;5.250;2022-07-24T08:32:13;5.4;;;3.2;;
62457;SDS011;48509;52.122;5.250;2022-07-24T08:34:01;5.8;;;3.4;;
62457;SDS011;48509;52.122;5.250;2022-07-24T08:35:48;5.8;;;3.2;;
62457;SDS011;48509;52.122;5.250;2022-07-24T08:39:22;4.41;;;3.2;;
62457;SDS011;48509;52.122;5.250;2022-07-24T08:41:09;3.8;;;3.3;;
62457;SDS011;48509;52.122;5.250;2022-07-24T08:42:56;3.4;;;2.9;;
62457;SDS011;48509;52.122;5.250;2022-07-24T08:44:44;3.9;;;3.0;;
62457;SDS011;48509;52.122;5.250;2022-07-24T08:46:35;5.3;;;2.7;;
62457;SDS011;48509;52.122;5.250;2022-07-24T08:48:24;4.0;;;2.6;;
62457;SDS011;48509;52.122;5.250;2022-07-24T08:52:02;3.0;;;2.7;;
62457;SDS011;48509;52.122;5.250;2022-07-24T08:53:50;3.3;;;2.7;;
62457;SDS011;48509;52.122;5.250;2022-07-24T08:55:38;2.8;;;2.31;;
62457;SDS011;48509;52.122;5.250;2022-07-24T08:57:25;4.1;;;2.7;;
62457;SDS011;48509;52.122;5.250;2022-07-24T08:59:15;5.9;;;3.0;;
62457;SDS011;48509;52.122;5.250;2022-07-24T09:01:03;4.91;;;2.9;;
62457;SDS011;48509;52.122;5.250;2022-07-24T09:04:38;5.11;;;3.2;;
62457;SDS011;48509;52.122;5.250;2022-07-24T09:06:28;5.2;;;3.2;;
62457;SDS011;48509;52.122;5.250;2022-07-24T09:08:15;6.2;;;3.0;;
62457;SDS011;48509;52.122;5.250;2022-07-24T09:10:03;4.41;;;3.2;;
62457;SDS011;48509;52.122;5.250;2022-07-24T09:12:01;3.7;;;2.8;;
62457;SDS011;48509;52.122;5.250;2022-07-24T09:14:53;4.5;;;2.7;;
62457;SDS011;48509;52.122;5.250;2022-07-24T09:16:40;4.91;;;2.8;;
62457;SDS011;48509;52.122;5.250;2022-07-24T09:18:29;4.3;;;3.0;;
62457;SDS011;48509;52.122;5.250;2022-07-24T09:20:17;3.9;;;2.9;;
62457;SDS011;48509;52.122;5.250;2022-07-24T09:22:05;4.2;;;2.31;;
62457;SDS011;48509;52.122;5.250;2022-07-24T09:25:40;6.1;;;2.7;;
62457;SDS011;48509;52.122;5.250;2022-07-24T09:27:27;3.8;;;2.7;;
62457;SDS011;48509;52.122;5.250;2022-07-24T09:29:14;3.7;;;2.7;;
62457;SDS011;48509;52.122;5.250;2022-07-24T09:31:02;4.41;;;2.21;;
62457;SDS011;48509;52.122;5.250;2022-07-24T09:32:50;4.41;;;2.21;;
62457;SDS011;48509;52.122;5.250;2022-07-24T09:34:39;5.3;;;2.9;;
62457;SDS011;48509;52.122;5.250;2022-07-24T09:38:14;3.0;;;2.7;;
62457;SDS011;48509;52.122;5.250;2022-07-24T09:40:08;3.0;;;2.6;;
62457;SDS011;48509;52.122;5.250;2022-07-24T09:41:56;4.3;;;2.5;;
62457;SDS011;48509;52.122;5.250;2022-07-24T09:43:45;3.2;;;2.5;;
62457;SDS011;48509;52.122;5.250;2022-07-24T09:45:59;4.41;;;2.4;;
62457;SDS011;48509;52.122;5.250;2022-07-24T09:47:48;4.7;;;2.7;;
62457;SDS011;48509;52.122;5.250;2022-07-24T09:49:38;5.7;;;2.7;;
62457;SDS011;48509;52.122;5.250;2022-07-24T09:51:26;6.9;;;2.8;;
62457;SDS011;48509;52.122;5.250;2022-07-24T09:53:15;5.3;;;2.6;;
62457;SDS011;48509;52.122;5.250;2022-07-24T09:57:22;3.0;;;2.6;;
62457;SDS011;48509;52.122;5.250;2022-07-24T09:59:11;3.7;;;2.7;;
62457;SDS011;48509;52.122;5.250;2022-07-24T10:01:03;3.5;;;2.5;;
62457;SDS011;48509;52.122;5.250;2022-07-24T10:02:51;3.4;;;2.7;;
62457;SDS011;48509;52.122;5.250;2022-07-24T10:04:43;3.5;;;2.31;;
62457;SDS011;48509;52.122;5.250;2022-07-24T10:06:32;5.9;;;2.6;;
62457;SDS011;48509;52.122;5.250;2022-07-24T10:08:22;6.1;;;2.6;;
62457;SDS011;48509;52.122;5.250;2022-07-24T10:10:10;4.2;;;2.6;;
62457;SDS011;48509;52.122;5.250;2022-07-24T10:13:50;4.5;;;2.4;;
62457;SDS011;48509;52.122;5.250;2022-07-24T10:15:37;3.7;;;2.7;;
62457;SDS011;48509;52.122;5.250;2022-07-24T10:17:47;3.8;;;2.5;;
62457;SDS011;48509;52.122;5.250;2022-07-24T10:20:24;3.0;;;2.1;;
62457;SDS011;48509;52.122;5.250;2022-07-24T10:22:24;3.6;;;2.5;;
62457;SDS011;48509;52.122;5.250;2022-07-24T10:24:43;3.2;;;2.21;;
62457;SDS011;48509;52.122;5.250;2022-07-24T10:26:43;5.5;;;2.5;;
62457;SDS011;48509;52.122;5.250;2022-07-24T10:30:26;4.2;;;2.4;;
62457;SDS011;48509;52.122;5.250;2022-07-24T10:32:14;2.8;;;2.4;;
62457;SDS011;48509;52.122;5.250;2022-07-24T10:34:01;3.6;;;2.1;;
62457;SDS011;48509;52.122;5.250;2022-07-24T10:35:54;4.0;;;2.6;;
62457;SDS011;48509;52.122;5.250;2022-07-24T10:37:51;3.6;;;2.5;;
62457;SDS011;48509;52.122;5.250;2022-07-24T10:40:02;3.9;;;2.4;;
62457;SDS011;48509;52.122;5.250;2022-07-24T10:42:00;4.5;;;2.1;;
62457;SDS011;48509;52.122;5.250;2022-07-24T10:44:22;4.1;;;2.31;;
62457;SDS011;48509;52.122;5.250;2022-07-24T10:46:10;2.6;;;2.4;;
62457;SDS011;48509;52.122;5.250;2022-07-24T10:47:57;4.0;;;2.4;;
62457;SDS011;48509;52.122;5.250;2022-07-24T10:50:10;3.1;;;2.4;;
62457;SDS011;48509;52.122;5.250;2022-07-24T10:51:58;3.2;;;2.21;;
62457;SDS011;48509;52.122;5.250;2022-07-24T10:55:38;3.6;;;2.4;;
62457;SDS011;48509;52.122;5.250;2022-07-24T10:57:44;4.41;;;2.5;;
62457;SDS011;48509;52.122;5.250;2022-07-24T10:59:33;5.6;;;2.4;;
62457;SDS011;48509;52.122;5.250;2022-07-24T11:01:27;5.6;;;2.4;;
62457;SDS011;48509;52.122;5.250;2022-07-24T11:03:29;5.5;;;2.6;;
62457;SDS011;48509;52.122;5.250;2022-07-24T11:05:33;6.0;;;2.31;;
62457;SDS011;48509;52.122;5.250;2022-07-24T11:07:22;4.0;;;2.5;;
62457;SDS011;48509;52.122;5.250;2022-07-24T11:09:09;3.5;;;2.21;;
62457;SDS011;48509;52.122;5.250;2022-07-24T11:10:59;3.3;;;2.21;;
62457;SDS011;48509;52.122;5.250;2022-07-24T11:13:02;2.31;;;2.0;;
62457;SDS011;48509;52.122;5.250;2022-07-24T11:16:16;3.5;;;2.4;;
62457;SDS011;48509;52.122;5.250;2022-07-24T11:18:18;5.0;;;2.1;;
62457;SDS011;48509;52.122;5.250;2022-07-24T11:20:06;2.5;;;2.0;;
62457;SDS011;48509;52.122;5.250;2022-07-24T11:22:07;4.2;;;2.5;;
62457;SDS011;48509;52.122;5.250;2022-07-24T11:24:16;5.8;;;2.1;;
62457;SDS011;48509;52.122;5.250;2022-07-24T11:26:36;3.1;;;2.21;;
62457;SDS011;48509;52.122;5.250;2022-07-24T11:28:33;5.8;;;2.21;;
62457;SDS011;48509;52.122;5.250;2022-07-24T11:30:19;3.7;;;2.21;;
62457;SDS011;48509;52.122;5.250;2022-07-24T11:32:08;5.0;;;2.4;;
62457;SDS011;48509;52.122;5.250;2022-07-24T11:33:58;2.5;;;2.0;;
62457;SDS011;48509;52.122;5.250;2022-07-24T11:35:46;2.4;;;2.21;;
62457;SDS011;48509;52.122;5.250;2022-07-24T11:39:25;4.0;;;2.4;;
62457;SDS011;48509;52.122;5.250;2022-07-24T11:41:13;4.7;;;2.4;;
62457;SDS011;48509;52.122;5.250;2022-07-24T11:43:00;4.41;;;2.4;;
62457;SDS011;48509;52.122;5.250;2022-07-24T11:46:39;3.7;;;2.31;;
62457;SDS011;48509;52.122;5.250;2022-07-24T11:48:27;3.4;;;2.1;;
62457;SDS011;48509;52.122;5.250;2022-07-24T11:52:06;6.1;;;2.31;;
62457;SDS011;48509;52.122;5.250;2022-07-24T11:53:53;3.6;;;1.9;;
62457;SDS011;48509;52.122;5.250;2022-07-24T11:55:41;2.31;;;2.1;;
62457;SDS011;48509;52.122;5.250;2022-07-24T11:57:30;3.1;;;2.1;;
62457;SDS011;48509;52.122;5.250;2022-07-24T11:59:21;3.2;;;2.1;;
62457;SDS011;48509;52.122;5.250;2022-07-24T12:01:18;2.5;;;2.0;;
62457;SDS011;48509;52.122;5.250;2022-07-24T12:03:05;2.7;;;2.1;;
62457;SDS011;48509;52.122;5.250;2022-07-24T12:06:39;2.31;;;2.0;;
62457;SDS011;48509;52.122;5.250;2022-07-24T12:08:30;3.0;;;2.21;;
62457;SDS011;48509;52.122;5.250;2022-07-24T12:10:18;3.9;;;2.5;;
62457;SDS011;48509;52.122;5.250;2022-07-24T12:12:06;5.5;;;2.21;;
62457;SDS011;48509;52.122;5.250;2022-07-24T12:14:04;3.8;;;2.21;;
62457;SDS011;48509;52.122;5.250;2022-07-24T12:15:51;2.31;;;2.1;;
62457;SDS011;48509;52.122;5.250;2022-07-24T12:17:52;3.4;;;2.4;;
62457;SDS011;48509;52.122;5.250;2022-07-24T12:19:40;3.9;;;2.21;;
62457;SDS011;48509;52.122;5.250;2022-07-24T12:23:24;3.0;;;1.9;;
62457;SDS011;48509;52.122;5.250;2022-07-24T12:25:11;4.61;;;2.21;;
62457;SDS011;48509;52.122;5.250;2022-07-24T12:26:58;4.8;;;1.8;;
62457;SDS011;48509;52.122;5.250;2022-07-24T12:28:45;3.1;;;2.0;;
62457;SDS011;48509;52.122;5.250;2022-07-24T12:30:32;2.21;;;1.8;;
62457;SDS011;48509;52.122;5.250;2022-07-24T12:32:21;12.2;;;2.21;;
62457;SDS011;48509;52.122;5.250;2022-07-24T12:35:57;2.4;;;1.9;;
62457;SDS011;48509;52.122;5.250;2022-07-24T12:37:45;2.9;;;1.7;;
62457;SDS011;48509;52.122;5.250;2022-07-24T12:39:32;2.4;;;1.7;;
62457;SDS011;48509;52.122;5.250;2022-07-24T12:41:22;2.6;;;1.8;;
62457;SDS011;48509;52.122;5.250;2022-07-24T12:43:12;2.4;;;1.8;;
62457;SDS011;48509;52.122;5.250;2022-07-24T12:45:07;1.9;;;1.4;;
62457;SDS011;48509;52.122;5.250;2022-07-24T12:46:55;5.5;;;2.1;;
62457;SDS011;48509;52.122;5.250;2022-07-24T12:51:01;5.11;;;2.1;;
62457;SDS011;48509;52.122;5.250;2022-07-24T12:52:51;2.8;;;1.9;;
62457;SDS011;48509;52.122;5.250;2022-07-24T12:54:49;1.9;;;1.7;;